sensor_id;sensor_type;location;lat;lon;timestamp;pressure;altitude;pressure_sealevel;temperature;humidity
1616;BME280;801;47.982;7.810;2023-02-07T00:00:20;100179.19;;;2.79;100.00
1616;BME280;801;47.982;7.810;2023-02-07T00:02:47;100180.72;;;2.73;100.00
1616;BME280;801;47.982;7.810;2023-02-07T00:05:15;100173.59;;;2.65;100.00
1616;BME280;801;47.982;7.810;2023-02-07T00:07:43;100177.63;;;2.45;100.00
1616;BME280;801;47.982;7.810;2023-02-07T00:10:10;100162.13;;;2.73;100.00
1616;BME280;801;47.982;7.810;2023-02-07T00:12:36;100157.72;;;2.49;100.00
1616;BME280;801;47.982;7.810;2023-02-07T00:15:03;100143.31;;;2.43;100.00
1616;BME280;801;47.982;7.810;2023-02-07T00:17:30;100151.91;;;2.45;100.00
1616;BME280;801;47.982;7.810;2023-02-07T00:19:57;100145.09;;;2.51;100.00
1616;BME280;801;47.982;7.810;2023-02-07T00:22:24;100159.41;;;2.42;100.00
1616;BME280;801;47.982;7.810;2023-02-07T00:24:52;100149.38;;;2.68;100.00
1616;BME280;801;47.982;7.810;2023-02-07T00:27:18;100150.78;;;2.32;100.00
1616;BME280;801;47.982;7.810;2023-02-07T00:29:45;100151.47;;;2.17;100.00
1616;BME280;801;47.982;7.810;2023-02-07T00:32:11;100151.09;;;2.45;100.00
1616;BME280;801;47.982;7.810;2023-02-07T00:34:38;100147.97;;;2.41;100.00
1616;BME280;801;47.982;7.810;2023-02-07T00:37:04;100149.75;;;2.41;98.78
1616;BME280;801;47.982;7.810;2023-02-07T00:39:31;100142.00;;;2.23;95.75
1616;BME280;801;47.982;7.810;2023-02-07T00:41:59;100154.06;;;2.50;92.35
1616;BME280;801;47.982;7.810;2023-02-07T00:44:26;100144.84;;;2.13;92.32
1616;BME280;801;47.982;7.810;2023-02-07T00:46:52;100144.81;;;2.46;90.11
1616;BME280;801;47.982;7.810;2023-02-07T00:49:19;100142.75;;;2.56;88.90
1616;BME280;801;47.982;7.810;2023-02-07T00:51:45;100131.75;;;1.95;88.80
1616;BME280;801;47.982;7.810;2023-02-07T00:54:12;100136.72;;;2.06;81.21
1616;BME280;801;47.982;7.810;2023-02-07T00:56:38;100148.50;;;2.12;80.74
1616;BME280;801;47.982;7.810;2023-02-07T00:59:06;100146.84;;;1.95;79.93
1616;BME280;801;47.982;7.810;2023-02-07T01:01:33;100146.50;;;1.90;80.39
1616;BME280;801;47.982;7.810;2023-02-07T01:04:00;100148.19;;;1.74;81.62
1616;BME280;801;47.982;7.810;2023-02-07T01:06:26;100147.84;;;1.61;82.53
1616;BME280;801;47.982;7.810;2023-02-07T01:08:56;100148.81;;;1.60;80.29
1616;BME280;801;47.982;7.810;2023-02-07T01:11:23;100160.09;;;1.78;80.31
1616;BME280;801;47.982;7.810;2023-02-07T01:13:49;100151.47;;;1.76;80.44
1616;BME280;801;47.982;7.810;2023-02-07T01:16:18;100152.63;;;1.74;81.31
1616;BME280;801;47.982;7.810;2023-02-07T01:18:46;100145.66;;;1.64;79.93
1616;BME280;801;47.982;7.810;2023-02-07T01:21:14;100145.00;;;1.46;81.93
1616;BME280;801;47.982;7.810;2023-02-07T01:23:40;100150.72;;;1.25;83.58
1616;BME280;801;47.982;7.810;2023-02-07T01:26:07;100162.69;;;1.37;81.74
1616;BME280;801;47.982;7.810;2023-02-07T01:28:34;100157.66;;;1.18;83.98
1616;BME280;801;47.982;7.810;2023-02-07T01:31:05;100153.09;;;1.36;83.53
1616;BME280;801;47.982;7.810;2023-02-07T01:33:33;100160.50;;;1.16;83.81
1616;BME280;801;47.982;7.810;2023-02-07T01:36:04;100168.88;;;1.54;83.62
1616;BME280;801;47.982;7.810;2023-02-07T01:38:31;100164.19;;;1.56;82.39
1616;BME280;801;47.982;7.810;2023-02-07T01:40:57;100152.66;;;0.98;86.01
1616;BME280;801;47.982;7.810;2023-02-07T01:43:24;100146.25;;;0.75;88.28
1616;BME280;801;47.982;7.810;2023-02-07T01:45:51;100122.91;;;1.13;87.60
1616;BME280;801;47.982;7.810;2023-02-07T01:48:22;100111.94;;;0.99;86.81
1616;BME280;801;47.982;7.810;2023-02-07T01:50:52;100113.56;;;1.00;87.94
1616;BME280;801;47.982;7.810;2023-02-07T01:53:23;100100.94;;;0.70;90.64
1616;BME280;801;47.982;7.810;2023-02-07T01:55:53;100094.81;;;0.77;89.86
1616;BME280;801;47.982;7.810;2023-02-07T01:58:21;100086.81;;;1.03;88.90
1616;BME280;801;47.982;7.810;2023-02-07T02:00:48;100085.06;;;0.78;88.42
1616;BME280;801;47.982;7.810;2023-02-07T02:03:15;100073.53;;;0.87;88.13
1616;BME280;801;47.982;7.810;2023-02-07T02:05:43;100051.22;;;0.47;88.79
1616;BME280;801;47.982;7.810;2023-02-07T02:08:12;100052.63;;;0.76;87.36
1616;BME280;801;47.982;7.810;2023-02-07T02:10:53;100060.03;;;0.56;88.61
1616;BME280;801;47.982;7.810;2023-02-07T02:13:27;100062.19;;;0.69;86.35
1616;BME280;801;47.982;7.810;2023-02-07T02:16:02;100061.72;;;0.65;85.33
1616;BME280;801;47.982;7.810;2023-02-07T02:18:53;100067.53;;;0.77;84.21
1616;BME280;801;47.982;7.810;2023-02-07T02:25:17;100076.09;;;0.71;82.26
1616;BME280;801;47.982;7.810;2023-02-07T02:28:20;100077.19;;;0.52;83.73
1616;BME280;801;47.982;7.810;2023-02-07T02:31:13;100075.09;;;0.64;83.48
1616;BME280;801;47.982;7.810;2023-02-07T02:33:52;100084.28;;;0.86;83.38
1616;BME280;801;47.982;7.810;2023-02-07T02:36:27;100099.00;;;0.46;84.14
1616;BME280;801;47.982;7.810;2023-02-07T02:39:02;100089.88;;;0.82;81.38
1616;BME280;801;47.982;7.810;2023-02-07T02:41:36;100099.25;;;0.69;82.81
1616;BME280;801;47.982;7.810;2023-02-07T02:44:09;100101.59;;;0.80;83.01
1616;BME280;801;47.982;7.810;2023-02-07T02:46:39;100112.38;;;0.87;83.47
1616;BME280;801;47.982;7.810;2023-02-07T02:49:11;100108.91;;;0.86;82.17
1616;BME280;801;47.982;7.810;2023-02-07T02:51:38;100114.66;;;0.73;82.89
1616;BME280;801;47.982;7.810;2023-02-07T02:54:27;100116.81;;;0.78;83.08
1616;BME280;801;47.982;7.810;2023-02-07T02:57:15;100125.41;;;0.72;82.43
1616;BME280;801;47.982;7.810;2023-02-07T03:00:15;100124.06;;;0.68;83.55
1616;BME280;801;47.982;7.810;2023-02-07T03:02:53;100131.28;;;0.92;82.55
1616;BME280;801;47.982;7.810;2023-02-07T03:05:37;100126.34;;;0.28;83.33
1616;BME280;801;47.982;7.810;2023-02-07T03:08:16;100129.44;;;0.50;82.73
1616;BME280;801;47.982;7.810;2023-02-07T03:10:51;100132.03;;;0.76;82.41
1616;BME280;801;47.982;7.810;2023-02-07T03:13:26;100137.03;;;0.53;82.16
1616;BME280;801;47.982;7.810;2023-02-07T03:16:03;100139.34;;;0.48;83.95
1616;BME280;801;47.982;7.810;2023-02-07T03:18:41;100114.81;;;0.72;79.97
1616;BME280;801;47.982;7.810;2023-02-07T03:21:17;100117.75;;;1.03;78.66
1616;BME280;801;47.982;7.810;2023-02-07T03:23:46;100128.34;;;0.69;80.38
1616;BME280;801;47.982;7.810;2023-02-07T03:26:13;100121.38;;;0.59;80.91
1616;BME280;801;47.982;7.810;2023-02-07T03:28:41;100130.44;;;0.91;79.41
1616;BME280;801;47.982;7.810;2023-02-07T03:31:11;100130.28;;;0.93;79.92
1616;BME280;801;47.982;7.810;2023-02-07T03:33:39;100128.53;;;0.67;79.04
1616;BME280;801;47.982;7.810;2023-02-07T03:36:09;100136.28;;;0.60;78.28
1616;BME280;801;47.982;7.810;2023-02-07T03:38:40;100123.19;;;0.59;80.77
1616;BME280;801;47.982;7.810;2023-02-07T03:41:13;100128.91;;;0.46;79.16
1616;BME280;801;47.982;7.810;2023-02-07T03:43:43;100125.28;;;0.47;80.82
1616;BME280;801;47.982;7.810;2023-02-07T03:46:10;100116.22;;;0.24;80.75
1616;BME280;801;47.982;7.810;2023-02-07T03:48:37;100127.94;;;0.47;78.89
1616;BME280;801;47.982;7.810;2023-02-07T03:51:04;100111.50;;;0.70;76.12
1616;BME280;801;47.982;7.810;2023-02-07T03:53:30;100115.88;;;0.87;76.41
1616;BME280;801;47.982;7.810;2023-02-07T03:55:58;100103.84;;;0.58;75.52
1616;BME280;801;47.982;7.810;2023-02-07T03:58:25;100111.22;;;0.89;75.84
1616;BME280;801;47.982;7.810;2023-02-07T04:00:51;100126.09;;;0.82;73.60
1616;BME280;801;47.982;7.810;2023-02-07T04:03:18;100115.81;;;0.71;73.27
1616;BME280;801;47.982;7.810;2023-02-07T04:05:44;100132.69;;;0.70;74.12
1616;BME280;801;47.982;7.810;2023-02-07T04:08:11;100128.97;;;0.54;73.67
1616;BME280;801;47.982;7.810;2023-02-07T04:10:37;100142.53;;;0.59;75.54
1616;BME280;801;47.982;7.810;2023-02-07T04:13:05;100151.22;;;0.78;74.33
1616;BME280;801;47.982;7.810;2023-02-07T04:15:32;100153.94;;;0.60;72.91
1616;BME280;801;47.982;7.810;2023-02-07T04:17:58;100161.47;;;0.73;74.34
1616;BME280;801;47.982;7.810;2023-02-07T04:20:25;100167.56;;;0.65;75.41
1616;BME280;801;47.982;7.810;2023-02-07T04:22:51;100179.91;;;0.30;77.19
1616;BME280;801;47.982;7.810;2023-02-07T04:25:17;100189.19;;;0.60;76.94
1616;BME280;801;47.982;7.810;2023-02-07T04:27:44;100210.63;;;0.49;77.29
1616;BME280;801;47.982;7.810;2023-02-07T04:30:12;100203.03;;;0.28;78.10
1616;BME280;801;47.982;7.810;2023-02-07T04:32:39;100210.66;;;0.57;76.49
1616;BME280;801;47.982;7.810;2023-02-07T04:35:06;100220.78;;;0.36;77.18
1616;BME280;801;47.982;7.810;2023-02-07T04:37:33;100211.09;;;0.27;77.44
1616;BME280;801;47.982;7.810;2023-02-07T04:39:59;100202.47;;;0.43;77.98
1616;BME280;801;47.982;7.810;2023-02-07T04:42:25;100204.47;;;0.75;75.51
1616;BME280;801;47.982;7.810;2023-02-07T04:44:52;100193.91;;;0.75;75.39
1616;BME280;801;47.982;7.810;2023-02-07T04:47:20;100201.47;;;0.70;75.88
1616;BME280;801;47.982;7.810;2023-02-07T04:49:46;100201.84;;;1.17;72.39
1616;BME280;801;47.982;7.810;2023-02-07T04:52:13;100196.41;;;0.50;74.79
1616;BME280;801;47.982;7.810;2023-02-07T04:54:39;100199.50;;;0.72;75.11
1616;BME280;801;47.982;7.810;2023-02-07T04:57:06;100203.03;;;0.80;73.41
1616;BME280;801;47.982;7.810;2023-02-07T04:59:32;100209.78;;;0.75;73.90
1616;BME280;801;47.982;7.810;2023-02-07T05:01:59;100212.41;;;0.75;73.33
1616;BME280;801;47.982;7.810;2023-02-07T05:04:27;100206.38;;;0.91;73.33
1616;BME280;801;47.982;7.810;2023-02-07T05:06:53;100218.06;;;0.80;72.01
1616;BME280;801;47.982;7.810;2023-02-07T05:09:20;100218.16;;;0.96;73.26
1616;BME280;801;47.982;7.810;2023-02-07T05:11:46;100213.72;;;0.71;72.77
1616;BME280;801;47.982;7.810;2023-02-07T05:14:13;100202.75;;;0.92;73.61
1616;BME280;801;47.982;7.810;2023-02-07T05:16:39;100192.72;;;1.03;71.30
1616;BME280;801;47.982;7.810;2023-02-07T05:19:06;100193.91;;;0.75;73.08
1616;BME280;801;47.982;7.810;2023-02-07T05:21:33;100203.41;;;0.94;72.35
1616;BME280;801;47.982;7.810;2023-02-07T05:24:00;100203.22;;;0.87;72.39
1616;BME280;801;47.982;7.810;2023-02-07T05:26:26;100203.47;;;0.76;72.17
1616;BME280;801;47.982;7.810;2023-02-07T05:28:53;100229.09;;;0.67;72.63
1616;BME280;801;47.982;7.810;2023-02-07T05:31:20;100227.09;;;0.95;70.94
1616;BME280;801;47.982;7.810;2023-02-07T05:34:06;100232.03;;;0.90;69.63
1616;BME280;801;47.982;7.810;2023-02-07T05:36:33;100249.09;;;0.96;70.74
1616;BME280;801;47.982;7.810;2023-02-07T05:39:00;100255.19;;;0.88;70.09
1616;BME280;801;47.982;7.810;2023-02-07T05:41:26;100259.66;;;0.88;71.16
1616;BME280;801;47.982;7.810;2023-02-07T05:43:53;100277.81;;;0.38;78.18
1616;BME280;801;47.982;7.810;2023-02-07T05:46:19;100263.47;;;0.23;80.18
1616;BME280;801;47.982;7.810;2023-02-07T05:48:46;100272.38;;;0.40;80.27
1616;BME280;801;47.982;7.810;2023-02-07T05:51:12;100275.09;;;0.48;80.79
1616;BME280;801;47.982;7.810;2023-02-07T05:53:40;100262.88;;;0.29;82.17
1616;BME280;801;47.982;7.810;2023-02-07T05:56:07;100262.97;;;0.64;80.81
1616;BME280;801;47.982;7.810;2023-02-07T05:58:33;100270.72;;;0.83;79.51
1616;BME280;801;47.982;7.810;2023-02-07T06:01:00;100266.63;;;0.71;78.65
1616;BME280;801;47.982;7.810;2023-02-07T06:03:26;100274.66;;;1.13;75.65
1616;BME280;801;47.982;7.810;2023-02-07T06:05:53;100287.94;;;0.87;76.84
1616;BME280;801;47.982;7.810;2023-02-07T06:08:19;100303.13;;;0.41;77.10
1616;BME280;801;47.982;7.810;2023-02-07T06:10:48;100300.91;;;0.72;80.04
1616;BME280;801;47.982;7.810;2023-02-07T06:13:15;100300.75;;;0.74;79.72
1616;BME280;801;47.982;7.810;2023-02-07T06:15:41;100302.34;;;1.19;77.50
1616;BME280;801;47.982;7.810;2023-02-07T06:18:08;100303.97;;;1.12;77.10
1616;BME280;801;47.982;7.810;2023-02-07T06:20:34;100311.78;;;0.95;80.11
1616;BME280;801;47.982;7.810;2023-02-07T06:23:01;100320.50;;;1.14;78.47
1616;BME280;801;47.982;7.810;2023-02-07T06:25:27;100328.63;;;0.86;77.96
1616;BME280;801;47.982;7.810;2023-02-07T06:27:55;100328.53;;;0.52;81.23
1616;BME280;801;47.982;7.810;2023-02-07T06:30:22;100329.88;;;0.74;81.16
1616;BME280;801;47.982;7.810;2023-02-07T06:32:48;100326.81;;;0.43;83.51
1616;BME280;801;47.982;7.810;2023-02-07T06:35:15;100334.56;;;0.62;82.29
1616;BME280;801;47.982;7.810;2023-02-07T06:37:41;100334.28;;;0.47;82.92
1616;BME280;801;47.982;7.810;2023-02-07T06:40:09;100342.69;;;0.43;85.22
1616;BME280;801;47.982;7.810;2023-02-07T06:42:35;100335.47;;;0.35;86.52
1616;BME280;801;47.982;7.810;2023-02-07T06:45:04;100339.25;;;0.50;85.42
1616;BME280;801;47.982;7.810;2023-02-07T06:47:30;100336.97;;;0.55;85.30
1616;BME280;801;47.982;7.810;2023-02-07T06:49:57;100340.00;;;0.78;84.36
1616;BME280;801;47.982;7.810;2023-02-07T06:52:24;100357.63;;;0.34;86.56
1616;BME280;801;47.982;7.810;2023-02-07T06:54:50;100359.03;;;0.82;86.06
1616;BME280;801;47.982;7.810;2023-02-07T06:57:17;100355.09;;;0.86;84.81
1616;BME280;801;47.982;7.810;2023-02-07T06:59:43;100348.34;;;0.48;86.84
1616;BME280;801;47.982;7.810;2023-02-07T07:02:12;100362.00;;;0.61;87.24
1616;BME280;801;47.982;7.810;2023-02-07T07:04:38;100350.28;;;0.64;86.97
1616;BME280;801;47.982;7.810;2023-02-07T07:07:05;100360.03;;;0.81;87.43
1616;BME280;801;47.982;7.810;2023-02-07T07:09:31;100362.88;;;1.14;85.13
1616;BME280;801;47.982;7.810;2023-02-07T07:11:58;100369.75;;;1.24;84.18
1616;BME280;801;47.982;7.810;2023-02-07T07:14:24;100368.88;;;0.72;87.87
1616;BME280;801;47.982;7.810;2023-02-07T07:16:51;100365.16;;;0.65;88.65
1616;BME280;801;47.982;7.810;2023-02-07T07:19:18;100362.56;;;0.91;87.37
1616;BME280;801;47.982;7.810;2023-02-07T07:21:45;100367.34;;;0.87;88.10
1616;BME280;801;47.982;7.810;2023-02-07T07:24:12;100364.69;;;0.15;92.66
1616;BME280;801;47.982;7.810;2023-02-07T07:26:38;100363.53;;;0.46;92.96
1616;BME280;801;47.982;7.810;2023-02-07T07:29:04;100357.00;;;0.40;93.42
1616;BME280;801;47.982;7.810;2023-02-07T07:31:32;100363.97;;;0.59;93.20
1616;BME280;801;47.982;7.810;2023-02-07T07:33:59;100369.72;;;0.72;92.76
1616;BME280;801;47.982;7.810;2023-02-07T07:36:27;100382.00;;;0.99;90.63
1616;BME280;801;47.982;7.810;2023-02-07T07:38:53;100380.63;;;0.95;90.30
1616;BME280;801;47.982;7.810;2023-02-07T07:41:20;100379.47;;;0.36;92.44
1616;BME280;801;47.982;7.810;2023-02-07T07:43:48;100371.56;;;0.80;90.35
1616;BME280;801;47.982;7.810;2023-02-07T07:46:15;100373.97;;;0.91;89.51
1616;BME280;801;47.982;7.810;2023-02-07T07:48:41;100385.78;;;0.07;95.78
1616;BME280;801;47.982;7.810;2023-02-07T07:51:08;100382.47;;;0.77;94.63
1616;BME280;801;47.982;7.810;2023-02-07T07:53:36;100386.34;;;1.09;91.84
1616;BME280;801;47.982;7.810;2023-02-07T07:56:03;100401.22;;;1.01;89.79
1616;BME280;801;47.982;7.810;2023-02-07T07:58:29;100404.19;;;0.98;88.61
1616;BME280;801;47.982;7.810;2023-02-07T08:00:56;100402.19;;;0.82;89.90
1616;BME280;801;47.982;7.810;2023-02-07T08:03:23;100413.34;;;0.50;93.18
1616;BME280;801;47.982;7.810;2023-02-07T08:05:49;100411.22;;;0.54;95.64
1616;BME280;801;47.982;7.810;2023-02-07T08:08:16;100415.84;;;0.70;93.31
1616;BME280;801;47.982;7.810;2023-02-07T08:10:45;100419.66;;;0.22;95.56
1616;BME280;801;47.982;7.810;2023-02-07T08:13:12;100422.69;;;-0.01;96.79
1616;BME280;801;47.982;7.810;2023-02-07T08:15:41;100422.31;;;-0.06;96.46
1616;BME280;801;47.982;7.810;2023-02-07T08:18:08;100433.25;;;0.27;96.89
1616;BME280;801;47.982;7.810;2023-02-07T08:20:34;100424.88;;;0.31;95.95
1616;BME280;801;47.982;7.810;2023-02-07T08:23:02;100432.84;;;0.49;95.96
1616;BME280;801;47.982;7.810;2023-02-07T08:25:29;100433.28;;;0.62;93.22
1616;BME280;801;47.982;7.810;2023-02-07T08:27:57;100435.88;;;0.72;94.01
1616;BME280;801;47.982;7.810;2023-02-07T08:30:24;100443.78;;;0.36;94.51
1616;BME280;801;47.982;7.810;2023-02-07T08:32:51;100440.84;;;0.57;94.57
1616;BME280;801;47.982;7.810;2023-02-07T08:35:19;100433.22;;;0.90;92.74
1616;BME280;801;47.982;7.810;2023-02-07T08:37:46;100435.72;;;0.74;92.61
1616;BME280;801;47.982;7.810;2023-02-07T08:40:12;100434.50;;;1.04;91.40
1616;BME280;801;47.982;7.810;2023-02-07T08:42:39;100439.25;;;0.82;91.18
1616;BME280;801;47.982;7.810;2023-02-07T08:45:08;100439.94;;;0.67;94.10
1616;BME280;801;47.982;7.810;2023-02-07T08:47:35;100440.56;;;0.78;94.46
1616;BME280;801;47.982;7.810;2023-02-07T08:50:02;100446.22;;;1.01;95.07
1616;BME280;801;47.982;7.810;2023-02-07T08:52:29;100455.13;;;0.82;96.39
1616;BME280;801;47.982;7.810;2023-02-07T08:54:55;100457.13;;;0.98;96.13
1616;BME280;801;47.982;7.810;2023-02-07T08:57:22;100469.28;;;0.91;96.60
1616;BME280;801;47.982;7.810;2023-02-07T08:59:50;100468.78;;;0.88;96.26
1616;BME280;801;47.982;7.810;2023-02-07T09:02:18;100462.34;;;0.72;96.94
1616;BME280;801;47.982;7.810;2023-02-07T09:04:45;100465.28;;;0.69;97.99
1616;BME280;801;47.982;7.810;2023-02-07T09:07:12;100464.75;;;1.01;98.10
1616;BME280;801;47.982;7.810;2023-02-07T09:09:38;100460.22;;;1.38;96.14
1616;BME280;801;47.982;7.810;2023-02-07T09:12:06;100462.78;;;1.03;95.62
1616;BME280;801;47.982;7.810;2023-02-07T09:14:32;100466.47;;;1.29;95.11
1616;BME280;801;47.982;7.810;2023-02-07T09:16:59;100472.44;;;1.31;94.26
1616;BME280;801;47.982;7.810;2023-02-07T09:19:26;100467.28;;;1.29;94.90
1616;BME280;801;47.982;7.810;2023-02-07T09:21:53;100469.16;;;1.63;93.62
1616;BME280;801;47.982;7.810;2023-02-07T09:24:20;100459.59;;;1.18;93.40
1616;BME280;801;47.982;7.810;2023-02-07T09:26:46;100453.75;;;1.32;92.36
1616;BME280;801;47.982;7.810;2023-02-07T09:29:13;100462.38;;;1.34;92.02
1616;BME280;801;47.982;7.810;2023-02-07T09:31:40;100454.69;;;1.75;89.77
1616;BME280;801;47.982;7.810;2023-02-07T09:34:07;100456.31;;;1.68;90.68
1616;BME280;801;47.982;7.810;2023-02-07T09:36:35;100462.97;;;1.72;90.46
1616;BME280;801;47.982;7.810;2023-02-07T09:39:02;100473.34;;;1.65;91.39
1616;BME280;801;47.982;7.810;2023-02-07T09:41:37;100474.25;;;1.56;91.34
1616;BME280;801;47.982;7.810;2023-02-07T09:44:13;100476.09;;;1.82;89.69
1616;BME280;801;47.982;7.810;2023-02-07T09:46:45;100485.38;;;1.34;90.26
1616;BME280;801;47.982;7.810;2023-02-07T09:49:22;100481.44;;;1.38;91.46
1616;BME280;801;47.982;7.810;2023-02-07T09:51:55;100497.56;;;1.71;90.05
1616;BME280;801;47.982;7.810;2023-02-07T09:54:24;100498.09;;;1.56;89.75
1616;BME280;801;47.982;7.810;2023-02-07T09:56:55;100507.63;;;1.67;88.69
1616;BME280;801;47.982;7.810;2023-02-07T09:59:25;100509.72;;;1.81;89.27
1616;BME280;801;47.982;7.810;2023-02-07T10:02:00;100515.66;;;2.01;86.58
1616;BME280;801;47.982;7.810;2023-02-07T10:04:34;100517.69;;;2.16;84.86
1616;BME280;801;47.982;7.810;2023-02-07T10:07:05;100517.41;;;1.93;86.32
1616;BME280;801;47.982;7.810;2023-02-07T10:09:37;100512.81;;;2.37;84.47
1616;BME280;801;47.982;7.810;2023-02-07T10:12:15;100512.34;;;2.42;84.13
1616;BME280;801;47.982;7.810;2023-02-07T10:15:06;100508.75;;;2.59;83.27
1616;BME280;801;47.982;7.810;2023-02-07T10:17:52;100511.41;;;2.67;83.70
1616;BME280;801;47.982;7.810;2023-02-07T10:20:32;100502.22;;;3.53;77.63
1616;BME280;801;47.982;7.810;2023-02-07T10:23:11;100497.88;;;3.11;77.31
1616;BME280;801;47.982;7.810;2023-02-07T10:25:52;100497.88;;;3.11;78.75
1616;BME280;801;47.982;7.810;2023-02-07T10:28:37;100492.19;;;3.64;77.18
1616;BME280;801;47.982;7.810;2023-02-07T10:31:12;100494.91;;;3.47;74.96
1616;BME280;801;47.982;7.810;2023-02-07T10:33:46;100486.91;;;3.56;76.44
1616;BME280;801;47.982;7.810;2023-02-07T10:36:14;100497.53;;;3.80;75.10
1616;BME280;801;47.982;7.810;2023-02-07T10:38:47;100491.72;;;3.68;75.06
1616;BME280;801;47.982;7.810;2023-02-07T10:41:20;100494.69;;;3.73;71.57
1616;BME280;801;47.982;7.810;2023-02-07T10:43:48;100493.22;;;4.27;70.26
1616;BME280;801;47.982;7.810;2023-02-07T10:46:15;100499.16;;;3.98;70.17
1616;BME280;801;47.982;7.810;2023-02-07T10:48:45;100506.69;;;4.25;70.47
1616;BME280;801;47.982;7.810;2023-02-07T10:51:20;100506.84;;;4.24;70.15
1616;BME280;801;47.982;7.810;2023-02-07T10:53:50;100511.22;;;4.56;68.09
1616;BME280;801;47.982;7.810;2023-02-07T10:56:26;100509.47;;;4.71;65.28
1616;BME280;801;47.982;7.810;2023-02-07T10:58:55;100510.22;;;5.11;63.00
1616;BME280;801;47.982;7.810;2023-02-07T11:01:23;100502.41;;;4.87;65.29
1616;BME280;801;47.982;7.810;2023-02-07T11:03:50;100501.44;;;5.64;62.14
1616;BME280;801;47.982;7.810;2023-02-07T11:06:24;100500.25;;;5.66;60.43
1616;BME280;801;47.982;7.810;2023-02-07T11:09:10;100499.88;;;4.62;61.59
1616;BME280;801;47.982;7.810;2023-02-07T11:11:37;100496.16;;;5.17;61.78
1616;BME280;801;47.982;7.810;2023-02-07T11:14:07;100480.13;;;5.26;62.54
1616;BME280;801;47.982;7.810;2023-02-07T11:16:33;100494.41;;;6.00;59.85
1616;BME280;801;47.982;7.810;2023-02-07T11:19:02;100493.81;;;5.98;56.18
1616;BME280;801;47.982;7.810;2023-02-07T11:21:34;100485.84;;;6.86;53.99
1616;BME280;801;47.982;7.810;2023-02-07T11:24:07;100490.88;;;6.59;54.50
1616;BME280;801;47.982;7.810;2023-02-07T11:26:48;100488.69;;;6.84;52.75
1616;BME280;801;47.982;7.810;2023-02-07T11:29:19;100484.66;;;6.37;52.87
1616;BME280;801;47.982;7.810;2023-02-07T11:31:48;100474.63;;;7.19;52.57
1616;BME280;801;47.982;7.810;2023-02-07T11:34:42;100472.75;;;7.41;50.93
1616;BME280;801;47.982;7.810;2023-02-07T11:37:19;100460.56;;;6.89;51.17
1616;BME280;801;47.982;7.810;2023-02-07T11:39:49;100467.97;;;7.36;51.13
1616;BME280;801;47.982;7.810;2023-02-07T11:42:18;100461.59;;;7.65;50.86
1616;BME280;801;47.982;7.810;2023-02-07T11:44:46;100469.34;;;7.82;50.47
1616;BME280;801;47.982;7.810;2023-02-07T11:47:16;100466.75;;;8.37;49.01
1616;BME280;801;47.982;7.810;2023-02-07T11:49:47;100474.06;;;8.56;46.82
1616;BME280;801;47.982;7.810;2023-02-07T11:52:14;100467.56;;;7.11;51.89
1616;BME280;801;47.982;7.810;2023-02-07T11:54:49;100451.41;;;7.47;52.27
1616;BME280;801;47.982;7.810;2023-02-07T11:57:17;100460.28;;;7.83;51.52
1616;BME280;801;47.982;7.810;2023-02-07T11:59:48;100450.97;;;7.44;52.00
1616;BME280;801;47.982;7.810;2023-02-07T12:02:18;100452.28;;;7.89;51.29
1616;BME280;801;47.982;7.810;2023-02-07T12:04:46;100456.97;;;7.81;52.99
1616;BME280;801;47.982;7.810;2023-02-07T12:07:15;100449.38;;;8.26;53.69
1616;BME280;801;47.982;7.810;2023-02-07T12:09:46;100442.59;;;8.78;52.07
1616;BME280;801;47.982;7.810;2023-02-07T12:12:19;100441.75;;;8.71;52.65
1616;BME280;801;47.982;7.810;2023-02-07T12:14:50;100440.94;;;8.90;50.79
1616;BME280;801;47.982;7.810;2023-02-07T12:17:22;100437.25;;;9.51;50.53
1616;BME280;801;47.982;7.810;2023-02-07T12:19:54;100433.53;;;9.12;49.15
1616;BME280;801;47.982;7.810;2023-02-07T12:22:27;100426.31;;;8.93;51.16
1616;BME280;801;47.982;7.810;2023-02-07T12:25:02;100425.44;;;8.79;52.04
1616;BME280;801;47.982;7.810;2023-02-07T12:27:35;100423.56;;;8.60;51.59
1616;BME280;801;47.982;7.810;2023-02-07T12:30:11;100428.97;;;8.73;50.69
1616;BME280;801;47.982;7.810;2023-02-07T12:32:47;100424.84;;;8.16;52.23
1616;BME280;801;47.982;7.810;2023-02-07T12:35:20;100422.69;;;8.46;53.45
1616;BME280;801;47.982;7.810;2023-02-07T12:37:53;100422.00;;;9.25;52.69
1616;BME280;801;47.982;7.810;2023-02-07T12:40:27;100426.06;;;9.74;50.06
1616;BME280;801;47.982;7.810;2023-02-07T12:43:00;100420.13;;;9.46;51.32
1616;BME280;801;47.982;7.810;2023-02-07T12:45:38;100414.88;;;8.44;52.28
1616;BME280;801;47.982;7.810;2023-02-07T12:48:15;100423.19;;;8.69;51.60
1616;BME280;801;47.982;7.810;2023-02-07T12:50:54;100417.44;;;8.99;50.78
1616;BME280;801;47.982;7.810;2023-02-07T12:53:35;100420.94;;;9.40;50.59
1616;BME280;801;47.982;7.810;2023-02-07T12:56:18;100413.50;;;9.42;50.44
1616;BME280;801;47.982;7.810;2023-02-07T12:58:54;100425.56;;;10.04;49.18
1616;BME280;801;47.982;7.810;2023-02-07T13:01:30;100423.44;;;9.34;50.35
1616;BME280;801;47.982;7.810;2023-02-07T13:04:16;100430.63;;;8.87;50.26
1616;BME280;801;47.982;7.810;2023-02-07T13:06:54;100437.66;;;9.55;51.07
1616;BME280;801;47.982;7.810;2023-02-07T13:09:28;100429.41;;;9.23;49.45
1616;BME280;801;47.982;7.810;2023-02-07T13:12:03;100432.66;;;9.85;50.63
1616;BME280;801;47.982;7.810;2023-02-07T13:14:43;100434.16;;;10.33;48.85
1616;BME280;801;47.982;7.810;2023-02-07T13:17:28;100430.66;;;9.47;48.92
1616;BME280;801;47.982;7.810;2023-02-07T13:20:04;100431.06;;;9.04;51.11
1616;BME280;801;47.982;7.810;2023-02-07T13:22:41;100432.53;;;9.27;52.05
1616;BME280;801;47.982;7.810;2023-02-07T13:25:15;100428.97;;;9.53;50.51
1616;BME280;801;47.982;7.810;2023-02-07T13:27:46;100436.13;;;9.99;49.52
1616;BME280;801;47.982;7.810;2023-02-07T13:30:16;100426.91;;;9.62;49.06
1616;BME280;801;47.982;7.810;2023-02-07T13:32:45;100422.00;;;9.25;50.16
1616;BME280;801;47.982;7.810;2023-02-07T13:35:16;100434.34;;;9.60;50.55
1616;BME280;801;47.982;7.810;2023-02-07T13:37:49;100422.00;;;9.32;49.82
1616;BME280;801;47.982;7.810;2023-02-07T13:40:26;100424.25;;;9.15;52.38
1616;BME280;801;47.982;7.810;2023-02-07T13:43:03;100425.47;;;9.52;51.00
1616;BME280;801;47.982;7.810;2023-02-07T13:45:39;100428.16;;;9.52;50.15
1616;BME280;801;47.982;7.810;2023-02-07T13:48:16;100427.34;;;9.25;51.91
1616;BME280;801;47.982;7.810;2023-02-07T13:50:52;100418.69;;;9.10;51.32